Time;durP1;ratioP1;P1;durP2;ratioP2;P2;SDS_P1;SDS_P2;PMS_P1;PMS_P2;Temp;Humidity;BMP_temperature;BMP_pressure;BME280_temperature;BME280_humidity;BME280_pressure;Samples;Min_cycle;Max_cycle;Signal;HPM_P1;HPM_P2
2023/05/30 00:02:14;;;;;;;0.95;0.95;;;10.80;99.90;;;;;;5071513;28;20174;-73
2023/05/30 00:04:40;;;;;;;0.50;0.50;;;10.80;99.90;;;;;;5108699;28;20550;-73
2023/05/30 00:07:06;;;;;;;0.57;0.57;;;10.70;99.90;;;;;;5091443;28;20554;-73
2023/05/30 00:09:32;;;;;;;0.30;0.30;;;10.70;99.90;;;;;;5091399;28;20058;-73
2023/05/30 00:11:58;;;;;;;0.22;0.22;;;10.70;99.90;;;;;;5073929;28;20459;-74
2023/05/30 00:14:26;;;;;;;0.30;0.30;;;10.90;99.90;;;;;;5099438;28;20466;-74
2023/05/30 00:16:52;;;;;;;0.30;0.30;;;10.70;99.90;;;;;;5070681;28;20047;-73
2023/05/30 00:19:19;;;;;;;;;;;10.60;99.90;;;;;;5071734;28;20036;-73
2023/05/30 00:21:46;;;;;;;0.30;0.30;;;11.00;99.90;;;;;;5071067;28;19920;-73
2023/05/30 00:24:12;;;;;;;0.50;0.50;;;10.70;99.90;;;;;;5070757;28;20044;-73
2023/05/30 00:26:38;;;;;;;0.40;0.40;;;10.70;99.90;;;;;;5070367;28;20549;-73
2023/05/30 00:29:03;;;;;;;0.50;0.50;;;10.60;99.90;;;;;;5053837;28;20090;-73
2023/05/30 00:31:30;;;;;;;1.15;0.65;;;10.60;99.90;;;;;;5070808;28;20060;-73
2023/05/30 00:33:56;;;;;;;0.50;0.50;;;10.60;99.90;;;;;;5070041;28;20123;-73
2023/05/30 00:36:22;;;;;;;0.40;0.40;;;10.60;99.90;;;;;;5070565;28;20115;-73
2023/05/30 00:38:47;;;;;;;0.75;0.75;;;10.60;99.90;;;;;;5053415;28;20044;-73
2023/05/30 00:41:13;;;;;;;0.30;0.30;;;10.60;99.90;;;;;;5070631;28;20057;-73
2023/05/30 00:43:39;;;;;;;0.45;0.45;;;10.60;99.90;;;;;;5084410;28;20119;-73
2023/05/30 00:46:07;;;;;;;0.47;0.47;;;10.70;99.90;;;;;;5070304;28;20125;-73
2023/05/30 00:48:33;;;;;;;0.47;0.47;;;10.60;99.90;;;;;;5057374;28;20456;-73
2023/05/30 00:50:59;;;;;;;0.55;0.55;;;10.60;99.90;;;;;;5069515;28;20448;-73
2023/05/30 00:53:25;;;;;;;0.40;0.40;;;10.70;99.90;;;;;;5054315;28;20040;-73
2023/05/30 00:55:51;;;;;;;0.30;0.30;;;10.70;99.90;;;;;;5070208;28;20045;-73
2023/05/30 00:58:16;;;;;;;0.77;0.77;;;10.60;99.90;;;;;;5070669;28;20037;-74
2023/05/30 01:00:42;;;;;;;0.30;0.30;;;10.60;99.90;;;;;;5089264;28;20085;-73
2023/05/30 01:03:08;;;;;;;;;;;10.50;99.90;;;;;;5091172;28;20040;-73
2023/05/30 01:05:35;;;;;;;0.40;0.40;;;10.80;99.90;;;;;;5073380;28;19942;-73
2023/05/30 01:08:01;;;;;;;0.30;0.30;;;10.60;99.90;;;;;;5090443;28;20044;-73
2023/05/30 01:10:29;;;;;;;0.50;0.50;;;10.60;99.90;;;;;;5090353;28;20131;-73
2023/05/30 01:12:59;;;;;;;0.40;0.40;;;10.60;99.90;;;;;;5089877;28;20481;-73
2023/05/30 01:15:36;;;;;;;0.30;0.30;;;10.60;99.90;;;;;;5072538;28;20136;-73
2023/05/30 01:18:25;;;;;;;0.50;0.50;;;10.60;99.90;;;;;;5069545;28;20032;-73
2023/05/30 01:20:56;;;;;;;0.40;0.40;;;10.60;99.90;;;;;;5069647;28;20032;-73
2023/05/30 01:23:25;;;;;;;0.50;0.50;;;10.60;99.90;;;;;;5055289;28;20032;-73
2023/05/30 01:26:12;;;;;;;0.50;0.50;;;10.60;99.90;;;;;;5059777;28;20131;-74
2023/05/30 01:28:39;;;;;;;0.45;0.40;;;10.70;99.90;;;;;;5069535;28;20038;-73
2023/05/30 01:31:07;;;;;;;0.55;0.55;;;10.60;99.90;;;;;;5069652;28;20476;-73
2023/05/30 01:33:34;;;;;;;0.30;0.30;;;10.80;99.90;;;;;;5069643;28;20444;-73
2023/05/30 01:36:00;;;;;;;0.60;0.60;;;10.60;99.90;;;;;;5052896;28;20053;-73
2023/05/30 01:38:26;;;;;;;0.60;0.60;;;10.70;99.90;;;;;;5070543;28;20053;-73
2023/05/30 01:40:57;;;;;;;0.55;0.55;;;10.70;99.90;;;;;;5052751;28;20046;-73
2023/05/30 01:43:52;;;;;;;0.88;0.63;;;10.60;99.90;;;;;;5099037;28;20397;-73
2023/05/30 01:46:38;;;;;;;0.47;0.47;;;10.60;99.90;;;;;;5048456;28;20420;-73
2023/05/30 01:49:16;;;;;;;0.38;0.38;;;10.60;99.90;;;;;;5052410;28;20048;-73
2023/05/30 01:51:49;;;;;;;0.30;0.30;;;10.70;99.90;;;;;;5069347;28;20079;-73
2023/05/30 01:54:17;;;;;;;0.20;0.20;;;10.60;99.90;;;;;;5068995;28;20044;-74
2023/05/30 01:56:48;;;;;;;0.30;0.30;;;10.70;99.90;;;;;;5069732;28;20036;-73
2023/05/30 01:59:16;;;;;;;0.40;0.40;;;10.60;99.90;;;;;;5090185;28;20157;-72
2023/05/30 02:01:43;;;;;;;0.50;0.50;;;10.70;99.90;;;;;;5089374;28;20040;-73
2023/05/30 02:04:09;;;;;;;1.33;0.60;;;10.60;99.90;;;;;;5071884;28;20157;-73
2023/05/30 02:06:36;;;;;;;0.35;0.35;;;10.60;99.90;;;;;;5089297;28;20090;-74
2023/05/30 02:09:04;;;;;;;0.38;0.38;;;10.60;99.90;;;;;;5105621;28;20059;-74
2023/05/30 02:11:29;;;;;;;0.73;0.73;;;10.60;99.90;;;;;;5106094;28;20082;-74
2023/05/30 02:14:00;;;;;;;0.63;0.63;;;10.60;99.90;;;;;;5067020;28;20044;-73
2023/05/30 02:16:26;;;;;;;0.40;0.40;;;10.70;99.90;;;;;;5069086;28;20417;-74
2023/05/30 02:18:52;;;;;;;0.45;0.45;;;10.60;99.90;;;;;;5060191;28;20052;-74
2023/05/30 02:21:19;;;;;;;0.30;0.30;;;10.70;99.90;;;;;;5048656;28;20504;-74
2023/05/30 02:23:45;;;;;;;0.30;0.30;;;10.60;99.90;;;;;;5048422;28;20094;-73
2023/05/30 02:26:10;;;;;;;0.57;0.57;;;10.60;99.90;;;;;;5061427;28;20036;-73
2023/05/30 02:28:36;;;;;;;0.30;0.30;;;10.60;99.90;;;;;;5068669;28;20047;-73
2023/05/30 02:31:02;;;;;;;0.30;0.30;;;10.90;99.90;;;;;;5068410;28;20041;-73
2023/05/30 02:33:28;;;;;;;0.50;0.50;;;10.60;99.90;;;;;;5068230;28;20125;-73
2023/05/30 02:35:54;;;;;;;0.40;0.40;;;10.70;99.90;;;;;;5068340;28;20097;-73
2023/05/30 02:38:20;;;;;;;0.30;0.30;;;10.60;99.90;;;;;;5068393;28;20040;-73
2023/05/30 02:40:46;;;;;;;0.40;0.40;;;10.60;99.90;;;;;;5068311;28;20419;-73
2023/05/30 02:43:12;;;;;;;0.30;0.30;;;10.60;99.90;;;;;;5067490;28;20060;-73
2023/05/30 02:45:38;;;;;;;0.40;0.40;;;10.60;99.90;;;;;;5068444;28;20498;-73
2023/05/30 02:48:04;;;;;;;0.28;0.28;;;10.60;99.90;;;;;;5067836;28;20050;-73
2023/05/30 02:50:30;;;;;;;0.43;0.43;;;10.60;99.90;;;;;;5068155;28;20045;-73
2023/05/30 02:52:55;;;;;;;;;;;10.60;99.90;;;;;;5067705;28;20052;-72
2023/05/30 02:55:21;;;;;;;0.77;0.77;;;10.60;99.90;;;;;;5067888;28;19935;-73
2023/05/30 02:57:47;;;;;;;0.50;0.50;;;10.60;99.90;;;;;;5067939;28;20811;-73
2023/05/30 03:00:14;;;;;;;0.40;0.40;;;10.60;99.90;;;;;;5034212;28;20076;-73
2023/05/30 03:02:39;;;;;;;0.85;0.63;;;10.60;99.90;;;;;;5067735;28;20032;-73
2023/05/30 03:05:06;;;;;;;0.40;0.40;;;10.70;99.90;;;;;;5067009;28;20067;-73
2023/05/30 03:07:32;;;;;;;0.40;0.40;;;10.50;99.90;;;;;;5067630;28;20044;-73
2023/05/30 03:09:58;;;;;;;0.32;0.32;;;10.50;99.90;;;;;;5066892;28;20052;-73
2023/05/30 03:12:24;;;;;;;0.30;0.30;;;10.60;99.90;;;;;;5068830;28;20096;-73
2023/05/30 03:14:49;;;;;;;0.40;0.40;;;10.60;99.90;;;;;;5065144;28;20076;-73
2023/05/30 03:17:15;;;;;;;2.03;1.92;;;10.60;99.90;;;;;;5034415;28;20079;-73
2023/05/30 03:19:41;;;;;;;0.30;0.30;;;10.70;99.90;;;;;;5051698;28;20159;-73
2023/05/30 03:22:07;;;;;;;0.47;0.47;;;10.50;99.90;;;;;;5051463;28;20047;-73
2023/05/30 03:24:33;;;;;;;0.50;0.50;;;10.50;99.90;;;;;;5035029;28;20056;-74
2023/05/30 03:26:59;;;;;;;0.40;0.40;;;10.60;99.90;;;;;;5051816;28;20044;-74
2023/05/30 03:29:26;;;;;;;0.30;0.30;;;10.60;99.90;;;;;;5051336;28;20094;-73
2023/05/30 03:31:51;;;;;;;0.38;0.38;;;10.60;99.90;;;;;;5051696;28;20048;-74
2023/05/30 03:34:18;;;;;;;0.40;0.40;;;10.60;99.90;;;;;;5061707;28;20046;-74
2023/05/30 03:36:43;;;;;;;0.45;0.45;;;10.60;99.90;;;;;;5071886;28;20485;-74
2023/05/30 03:39:09;;;;;;;0.40;0.40;;;10.50;99.90;;;;;;5071470;28;20085;-72
2023/05/30 03:41:35;;;;;;;0.40;0.40;;;10.60;99.90;;;;;;5071668;28;20057;-71
2023/05/30 03:44:00;;;;;;;0.35;0.35;;;10.60;99.90;;;;;;5085328;28;20524;-74
2023/05/30 03:46:26;;;;;;;0.30;0.30;;;10.60;99.90;;;;;;5071535;28;20055;-74
2023/05/30 03:48:52;;;;;;;0.40;0.40;;;10.60;99.90;;;;;;5061667;28;20048;-73
2023/05/30 03:51:18;;;;;;;0.40;0.40;;;10.70;99.90;;;;;;5073820;28;20047;-74
2023/05/30 03:53:44;;;;;;;0.60;0.60;;;10.70;99.90;;;;;;5066914;28;20492;-74
2023/05/30 03:56:09;;;;;;;0.65;0.65;;;10.70;99.90;;;;;;5071582;28;20117;-74
2023/05/30 03:58:35;;;;;;;0.63;0.55;;;10.70;99.90;;;;;;5072066;28;20048;-74
2023/05/30 04:01:01;;;;;;;0.40;0.40;;;10.80;99.90;;;;;;5071223;28;20447;-75
2023/05/30 04:03:28;;;;;;;0.43;0.43;;;10.90;99.90;;;;;;5054760;28;20058;-74
2023/05/30 04:05:55;;;;;;;0.30;0.30;;;10.80;99.90;;;;;;5055054;28;20407;-74
2023/05/30 04:08:22;;;;;;;0.30;0.30;;;10.90;99.90;;;;;;5071317;28;20487;-74
2023/05/30 04:10:48;;;;;;;0.75;0.75;;;11.00;99.90;;;;;;5067398;28;20049;-74
2023/05/30 04:13:14;;;;;;;0.20;0.20;;;11.00;99.90;;;;;;5050632;28;20439;-74
2023/05/30 04:15:40;;;;;;;0.30;0.30;;;10.90;99.90;;;;;;5054249;28;20090;-74
2023/05/30 04:18:05;;;;;;;0.50;0.50;;;10.90;99.90;;;;;;5071281;28;20093;-74
2023/05/30 04:20:31;;;;;;;0.38;0.38;;;11.00;99.90;;;;;;5054293;28;20046;-74
2023/05/30 04:22:57;;;;;;;0.45;0.45;;;11.00;99.90;;;;;;5071565;28;20135;-74
2023/05/30 04:25:23;;;;;;;0.40;0.40;;;11.00;99.90;;;;;;5063929;28;20056;-75
2023/05/30 04:27:48;;;;;;;0.40;0.40;;;11.00;99.90;;;;;;5034365;28;20048;-74
2023/05/30 04:30:14;;;;;;;0.40;0.40;;;11.10;99.90;;;;;;5050581;28;20103;-75
2023/05/30 04:32:40;;;;;;;0.47;0.47;;;11.20;99.90;;;;;;5050849;28;20095;-74
2023/05/30 04:35:09;;;;;;;0.40;0.40;;;11.00;99.90;;;;;;5056153;28;20098;-74
2023/05/30 04:37:38;;;;;;;0.40;0.40;;;11.10;99.90;;;;;;5070973;28;20044;-74
2023/05/30 04:40:12;;;;;;;0.40;0.40;;;11.10;99.90;;;;;;5071079;28;20450;-74
2023/05/30 04:42:41;;;;;;;0.70;0.70;;;11.10;99.90;;;;;;5061018;28;20056;-74
2023/05/30 04:45:08;;;;;;;0.43;0.43;;;11.10;99.90;;;;;;5076875;28;20452;-74
2023/05/30 04:47:34;;;;;;;0.35;0.35;;;11.00;99.90;;;;;;5053977;28;20123;-74
2023/05/30 04:50:01;;;;;;;;;;;11.10;99.90;;;;;;5054154;28;20082;-74
2023/05/30 04:52:27;;;;;;;0.30;0.30;;;11.20;99.90;;;;;;5082530;28;19920;-74
2023/05/30 04:54:55;;;;;;;0.40;0.40;;;11.10;99.90;;;;;;5072373;28;20155;-74
2023/05/30 04:57:21;;;;;;;0.28;0.28;;;11.10;99.90;;;;;;5070050;28;20120;-74
2023/05/30 04:59:47;;;;;;;0.50;0.50;;;11.10;99.90;;;;;;5069999;28;20047;-74
2023/05/30 05:02:13;;;;;;;0.50;0.50;;;11.10;99.90;;;;;;5069811;28;20752;-74
2023/05/30 05:04:39;;;;;;;0.38;0.38;;;11.10;99.90;;;;;;5053549;28;20051;-74
2023/05/30 05:07:05;;;;;;;0.25;0.25;;;11.10;99.90;;;;;;5065463;28;20056;-74
2023/05/30 05:09:31;;;;;;;;;;;11.10;99.90;;;;;;5050813;28;20036;-74
2023/05/30 05:11:57;;;;;;;0.45;0.45;;;11.20;99.90;;;;;;5050409;28;19932;-74
2023/05/30 05:14:23;;;;;;;0.40;0.40;;;11.10;99.90;;;;;;5042931;28;20055;-76
2023/05/30 05:16:49;;;;;;;0.40;0.40;;;11.20;99.90;;;;;;5071847;28;20036;-74
2023/05/30 05:19:15;;;;;;;0.38;0.38;;;11.20;99.90;;;;;;5069908;28;20111;-74
2023/05/30 05:21:41;;;;;;;0.30;0.30;;;11.30;99.90;;;;;;5069651;28;20131;-75
2023/05/30 05:24:07;;;;;;;0.35;0.35;;;11.20;99.90;;;;;;5052911;28;20051;-75
2023/05/30 05:26:34;;;;;;;0.35;0.35;;;11.40;99.90;;;;;;5053614;28;20124;-74
2023/05/30 05:29:00;;;;;;;0.43;0.43;;;11.40;99.90;;;;;;5049876;28;20045;-74
2023/05/30 05:31:26;;;;;;;0.50;0.50;;;11.20;99.90;;;;;;5016479;28;20052;-74
2023/05/30 05:33:51;;;;;;;0.30;0.30;;;11.20;99.90;;;;;;5040371;28;20044;-75
2023/05/30 05:36:18;;;;;;;0.40;0.40;;;11.20;99.90;;;;;;5073054;28;20079;-75
2023/05/30 05:38:44;;;;;;;0.50;0.50;;;11.40;99.90;;;;;;5070802;28;20040;-74
2023/05/30 05:41:09;;;;;;;0.38;0.38;;;11.20;99.90;;;;;;5069418;28;20392;-74
2023/05/30 05:43:36;;;;;;;0.52;0.52;;;11.20;99.90;;;;;;5067266;28;20060;-74
2023/05/30 05:46:02;;;;;;;0.52;0.52;;;11.30;99.90;;;;;;5106869;28;20491;-74
2023/05/30 05:48:28;;;;;;;0.40;0.40;;;11.30;99.90;;;;;;5095628;28;20048;-74
2023/05/30 05:50:53;;;;;;;0.40;0.40;;;11.30;99.90;;;;;;5069384;28;20125;-74
2023/05/30 05:53:20;;;;;;;0.30;0.30;;;11.30;99.90;;;;;;5069027;28;20401;-74
2023/05/30 05:55:45;;;;;;;;;;;11.30;99.90;;;;;;5069407;28;20126;-74
2023/05/30 05:58:12;;;;;;;0.40;0.40;;;11.30;99.90;;;;;;5069312;28;20341;-74
2023/05/30 06:00:37;;;;;;;0.30;0.30;;;11.30;99.90;;;;;;5068687;28;20393;-74
2023/05/30 06:03:03;;;;;;;0.50;0.50;;;11.30;99.90;;;;;;5067107;28;20036;-74
2023/05/30 06:05:29;;;;;;;0.50;0.50;;;11.30;99.90;;;;;;5032515;28;20068;-74
2023/05/30 06:07:57;;;;;;;0.75;0.75;;;11.30;99.90;;;;;;5049610;28;20080;-74
2023/05/30 06:10:27;;;;;;;1.02;1.02;;;11.40;99.90;;;;;;5048984;28;20183;-74
2023/05/30 06:12:53;;;;;;;1.25;1.15;;;11.30;99.90;;;;;;5016885;28;20130;-74
2023/05/30 06:15:18;;;;;;;0.40;0.40;;;11.20;99.90;;;;;;5065063;28;20523;-74
2023/05/30 06:17:45;;;;;;;0.50;0.50;;;11.20;99.90;;;;;;5069062;28;20072;-74
2023/05/30 06:20:11;;;;;;;0.40;0.40;;;11.20;99.90;;;;;;5068744;28;20062;-74
2023/05/30 06:22:37;;;;;;;0.25;0.25;;;11.20;99.90;;;;;;5068847;28;20154;-74
2023/05/30 06:25:03;;;;;;;0.50;0.50;;;11.30;99.90;;;;;;5064842;28;20048;-74
2023/05/30 06:27:29;;;;;;;0.22;0.22;;;11.30;99.90;;;;;;5032050;28;20049;-75
2023/05/30 06:29:55;;;;;;;0.20;0.20;;;11.30;99.90;;;;;;5048461;28;20052;-74
2023/05/30 06:32:20;;;;;;;0.40;0.40;;;11.30;99.90;;;;;;5048222;28;20059;-74
2023/05/30 06:34:46;;;;;;;0.30;0.30;;;11.30;99.90;;;;;;5062778;28;20041;-74
2023/05/30 06:37:15;;;;;;;0.38;0.38;;;11.30;99.90;;;;;;5068606;28;20128;-74
2023/05/30 06:39:41;;;;;;;0.40;0.40;;;11.40;99.90;;;;;;5069185;28;20481;-74
2023/05/30 06:42:11;;;;;;;0.40;0.40;;;11.50;99.90;;;;;;5054760;28;20056;-75
2023/05/30 06:44:37;;;;;;;0.30;0.30;;;11.40;99.90;;;;;;5096342;28;20056;-74
2023/05/30 06:47:04;;;;;;;0.40;0.40;;;11.40;99.90;;;;;;5072572;28;20047;-74
2023/05/30 06:49:30;;;;;;;0.30;0.30;;;11.50;99.90;;;;;;5070185;28;20479;-74
2023/05/30 06:51:56;;;;;;;;;;;11.50;99.90;;;;;;5077941;28;20043;-74
2023/05/30 06:54:22;;;;;;;0.70;0.70;;;11.50;99.90;;;;;;5074278;28;19920;-74
2023/05/30 06:56:48;;;;;;;0.32;0.32;;;11.60;99.90;;;;;;5068732;28;20044;-74
2023/05/30 06:59:13;;;;;;;0.30;0.30;;;11.70;99.90;;;;;;5067852;28;20037;-74
2023/05/30 07:01:39;;;;;;;0.30;0.30;;;11.70;99.90;;;;;;5068744;28;20047;-74
2023/05/30 07:04:05;;;;;;;0.30;0.30;;;11.80;99.90;;;;;;5069244;28;20465;-74
2023/05/30 07:06:31;;;;;;;0.50;0.50;;;11.70;99.90;;;;;;5051375;28;20045;-74
2023/05/30 07:08:57;;;;;;;0.30;0.30;;;11.80;99.90;;;;;;5068347;28;20441;-74
2023/05/30 07:11:23;;;;;;;;;;;11.90;99.90;;;;;;5068374;28;20090;-74
2023/05/30 07:13:49;;;;;;;0.30;0.30;;;11.80;99.90;;;;;;5051457;28;19924;-75
2023/05/30 07:16:15;;;;;;;0.28;0.28;;;11.80;99.90;;;;;;5068074;28;20041;-74
2023/05/30 07:18:40;;;;;;;0.25;0.25;;;11.70;99.90;;;;;;5051734;28;20567;-74
2023/05/30 07:21:07;;;;;;;0.30;0.30;;;11.80;99.90;;;;;;5068130;28;20501;-74
2023/05/30 07:23:35;;;;;;;0.50;0.40;;;11.70;99.90;;;;;;5050690;28;20481;-74
2023/05/30 07:26:01;;;;;;;0.30;0.30;;;11.70;99.90;;;;;;5051107;28;20048;-74
2023/05/30 07:28:26;;;;;;;;;;;11.70;99.90;;;;;;5051861;28;20060;-74
2023/05/30 07:30:52;;;;;;;0.35;0.35;;;11.80;99.90;;;;;;5068443;28;20423;-74
2023/05/30 07:33:18;;;;;;;0.30;0.30;;;11.70;99.90;;;;;;5067554;28;20078;-74
2023/05/30 07:35:44;;;;;;;0.38;0.38;;;11.70;99.90;;;;;;5051059;28;20037;-74
2023/05/30 07:38:10;;;;;;;0.30;0.30;;;11.80;99.90;;;;;;5068101;28;20047;-74
2023/05/30 07:40:36;;;;;;;0.30;0.30;;;11.90;99.90;;;;;;5075247;28;20032;-74
2023/05/30 07:43:02;;;;;;;0.40;0.40;;;11.80;99.90;;;;;;5077648;28;20362;-74
2023/05/30 07:45:27;;;;;;;0.30;0.30;;;12.10;99.90;;;;;;5067404;28;20143;-74
2023/05/30 07:47:53;;;;;;;0.45;0.45;;;12.00;99.90;;;;;;5067901;28;20528;-75
2023/05/30 07:50:19;;;;;;;0.30;0.30;;;12.10;99.90;;;;;;5050776;28;20130;-75
2023/05/30 07:52:45;;;;;;;0.52;0.52;;;12.20;99.90;;;;;;5083712;28;20047;-74
2023/05/30 07:55:10;;;;;;;0.30;0.30;;;12.50;99.90;;;;;;5068788;28;20086;-74
2023/05/30 07:57:36;;;;;;;0.30;0.30;;;12.30;99.90;;;;;;5068647;28;20397;-75
2023/05/30 08:00:07;;;;;;;0.30;0.30;;;12.40;99.90;;;;;;5054825;28;20055;-74
2023/05/30 08:02:33;;;;;;;0.20;0.20;;;12.30;99.90;;;;;;5071024;28;20044;-75
2023/05/30 08:04:59;;;;;;;0.20;0.20;;;12.20;99.90;;;;;;5072311;28;20123;-74
2023/05/30 08:07:25;;;;;;;0.73;0.65;;;12.20;99.90;;;;;;5071154;28;20174;-74
2023/05/30 08:09:50;;;;;;;0.38;0.38;;;12.40;99.90;;;;;;5071528;28;20497;-74
2023/05/30 08:12:19;;;;;;;0.30;0.30;;;12.30;99.90;;;;;;5071091;28;20477;-75
2023/05/30 08:14:45;;;;;;;0.30;0.30;;;12.30;99.90;;;;;;5070659;28;20492;-75
2023/05/30 08:17:11;;;;;;;1.30;1.25;;;12.40;99.90;;;;;;5071059;28;20052;-74
2023/05/30 08:19:37;;;;;;;0.20;0.20;;;12.40;99.90;;;;;;5070941;28;20067;-74
2023/05/30 08:22:03;;;;;;;0.30;0.30;;;12.50;99.90;;;;;;5054563;28;20469;-74
2023/05/30 08:24:30;;;;;;;0.20;0.20;;;12.60;99.90;;;;;;5070549;28;20040;-75
2023/05/30 08:26:55;;;;;;;0.40;0.40;;;12.70;99.90;;;;;;5054222;28;20047;-75
2023/05/30 08:29:21;;;;;;;0.40;0.40;;;12.90;99.90;;;;;;5053515;28;20044;-74
2023/05/30 08:31:48;;;;;;;0.38;0.38;;;13.10;99.90;;;;;;5071012;28;20044;-74
2023/05/30 08:34:15;;;;;;;0.65;0.65;;;13.40;99.90;;;;;;5037880;28;20038;-74
2023/05/30 08:36:40;;;;;;;0.30;0.30;;;13.70;99.90;;;;;;5060291;28;20366;-74
2023/05/30 08:39:06;;;;;;;0.30;0.30;;;14.30;99.90;;;;;;5107880;28;20047;-74
2023/05/30 08:41:32;;;;;;;0.20;0.20;;;14.30;99.90;;;;;;5090831;28;20044;-74
2023/05/30 08:43:58;;;;;;;0.28;0.28;;;14.30;99.90;;;;;;5072569;28;20140;-75
2023/05/30 08:46:24;;;;;;;;;;;14.30;99.90;;;;;;5054400;28;20413;-74
2023/05/30 08:48:51;;;;;;;0.20;0.20;;;14.30;99.90;;;;;;5071127;28;19920;-75
2023/05/30 08:51:19;;;;;;;0.20;0.20;;;14.30;99.90;;;;;;5074301;28;20118;-75
2023/05/30 08:53:51;;;;;;;0.20;0.20;;;14.40;99.90;;;;;;5046955;28;20564;-75
2023/05/30 08:56:37;;;;;;;0.20;0.20;;;14.70;99.90;;;;;;5070171;28;20512;-75
2023/05/30 08:59:05;;;;;;;0.20;0.20;;;14.60;99.90;;;;;;5070452;28;20040;-75
2023/05/30 09:01:31;;;;;;;0.30;0.30;;;14.50;99.90;;;;;;5070111;28;20074;-75
2023/05/30 09:03:58;;;;;;;0.22;0.22;;;14.60;99.90;;;;;;5054701;28;20048;-75
2023/05/30 09:06:25;;;;;;;0.20;0.20;;;14.50;99.90;;;;;;5070325;28;20493;-75
2023/05/30 09:08:53;;;;;;;0.20;0.20;;;14.50;99.90;;;;;;5070552;28;20425;-75
2023/05/30 09:11:21;;;;;;;0.20;0.20;;;14.40;99.90;;;;;;5068803;28;20575;-74
2023/05/30 09:13:48;;;;;;;0.20;0.20;;;14.30;99.90;;;;;;5070687;28;20119;-75
2023/05/30 09:16:14;;;;;;;0.20;0.20;;;14.30;99.90;;;;;;5053406;28;20036;-75
2023/05/30 09:18:40;;;;;;;0.20;0.20;;;14.40;99.90;;;;;;5086178;28;20079;-75
2023/05/30 09:21:06;;;;;;;0.20;0.20;;;14.60;99.90;;;;;;5069674;28;20076;-75
2023/05/30 09:23:32;;;;;;;;;;;14.50;99.90;;;;;;5069743;28;20051;-75
2023/05/30 09:26:00;;;;;;;0.30;0.30;;;14.20;99.90;;;;;;5069839;28;19920;-75
2023/05/30 09:28:28;;;;;;;0.20;0.20;;;14.20;99.90;;;;;;5069457;28;20143;-74
2023/05/30 09:31:02;;;;;;;0.30;0.30;;;14.00;99.90;;;;;;5053219;28;20048;-74
2023/05/30 09:33:45;;;;;;;0.20;0.20;;;14.10;99.90;;;;;;5059866;28;20114;-75
2023/05/30 09:36:18;;;;;;;0.20;0.20;;;13.80;99.90;;;;;;5069824;28;20040;-75
2023/05/30 09:39:06;;;;;;;0.20;0.20;;;13.80;99.90;;;;;;5069119;28;20051;-75
2023/05/30 09:41:33;;;;;;;0.20;0.20;;;13.40;99.90;;;;;;5069144;28;20033;-75
2023/05/30 09:43:59;;;;;;;0.50;0.50;;;13.40;99.90;;;;;;5066692;28;20055;-74
2023/05/30 09:46:30;;;;;;;0.30;0.30;;;13.40;99.90;;;;;;5069095;28;20048;-75
2023/05/30 09:48:56;;;;;;;0.30;0.30;;;13.20;99.90;;;;;;5069150;28;20048;-75
2023/05/30 09:51:25;;;;;;;0.20;0.20;;;13.30;99.90;;;;;;5068663;28;20097;-74
2023/05/30 09:54:02;;;;;;;0.20;0.20;;;13.50;99.90;;;;;;5069186;28;20036;-75
2023/05/30 09:56:33;;;;;;;0.47;0.47;;;13.80;99.90;;;;;;5052151;28;20044;-75
2023/05/30 09:59:08;;;;;;;0.20;0.20;;;14.10;99.90;;;;;;5069505;28;20048;-75
2023/05/30 10:01:45;;;;;;;0.10;0.10;;;14.40;99.90;;;;;;5068863;28;20044;-75
2023/05/30 10:04:23;;;;;;;0.68;0.50;;;14.70;99.90;;;;;;5052238;28;20072;-75
2023/05/30 10:06:52;;;;;;;0.10;0.10;;;14.70;99.90;;;;;;5068854;28;20045;-75
2023/05/30 10:09:20;;;;;;;0.22;0.22;;;14.70;99.90;;;;;;5068633;28;20097;-75
2023/05/30 10:11:46;;;;;;;0.20;0.20;;;14.60;99.90;;;;;;5068945;28;20075;-75
2023/05/30 10:14:13;;;;;;;0.30;0.30;;;14.40;99.90;;;;;;5069152;28;20047;-75
2023/05/30 10:16:57;;;;;;;0.10;0.10;;;14.50;99.90;;;;;;5068547;28;20044;-75
2023/05/30 10:19:42;;;;;;;0.10;0.10;;;14.40;99.90;;;;;;5068718;28;20070;-75
2023/05/30 10:22:08;;;;;;;0.20;0.20;;;14.70;99.90;;;;;;5069185;28;20562;-74
2023/05/30 10:24:34;;;;;;;0.17;0.17;;;14.50;99.90;;;;;;5067965;28;20040;-75
2023/05/30 10:27:03;;;;;;;0.10;0.10;;;14.50;99.90;;;;;;5032139;28;20076;-75
2023/05/30 10:29:41;;;;;;;0.28;0.28;;;14.60;99.90;;;;;;5065338;28;20052;-75
2023/05/30 10:32:08;;;;;;;0.20;0.20;;;14.50;99.90;;;;;;5088567;28;20084;-75
2023/05/30 10:34:53;;;;;;;0.20;0.20;;;14.40;99.90;;;;;;5092746;28;20040;-75
2023/05/30 10:37:20;;;;;;;0.10;0.10;;;14.30;99.90;;;;;;5069352;28;20039;-74
2023/05/30 10:40:06;;;;;;;0.30;0.30;;;14.40;99.90;;;;;;5052222;28;20450;-75
2023/05/30 10:42:47;;;;;;;0.20;0.20;;;14.40;99.90;;;;;;5074394;28;20096;-74
2023/05/30 10:45:18;;;;;;;0.30;0.30;;;14.70;99.90;;;;;;5057262;28;20052;-74
2023/05/30 10:48:08;;;;;;;0.20;0.20;;;14.80;99.90;;;;;;5068145;28;20052;-75
2023/05/30 10:50:48;;;;;;;0.30;0.30;;;15.10;99.90;;;;;;5067786;28;20106;-75
2023/05/30 10:53:18;;;;;;;0.20;0.20;;;15.20;99.90;;;;;;5068478;28;20051;-75
2023/05/30 10:55:46;;;;;;;0.20;0.20;;;15.20;99.90;;;;;;5067913;28;20094;-75
2023/05/30 10:58:35;;;;;;;0.20;0.20;;;15.20;99.90;;;;;;5068270;28;20119;-75
2023/05/30 11:01:24;;;;;;;0.30;0.30;;;15.10;99.90;;;;;;5068335;28;20036;-75
2023/05/30 11:04:00;;;;;;;0.30;0.30;;;15.00;99.90;;;;;;5068138;28;20044;-75
2023/05/30 11:06:27;;;;;;;0.20;0.20;;;14.80;99.90;;;;;;5052493;28;20048;-75
2023/05/30 11:09:03;;;;;;;0.98;0.98;;;15.00;99.90;;;;;;5068248;28;20076;-75
2023/05/30 11:11:52;;;;;;;0.30;0.30;;;15.00;99.90;;;;;;5068480;28;20123;-74
2023/05/30 11:14:33;;;;;;;0.30;0.30;;;14.90;99.90;;;;;;5067913;28;20310;-75
2023/05/30 11:17:06;;;;;;;0.22;0.22;;;14.80;99.90;;;;;;5068239;28;20044;-74
2023/05/30 11:19:47;;;;;;;0.73;0.73;;;14.80;99.90;;;;;;5067918;28;20071;-74
2023/05/30 11:22:13;;;;;;;0.22;0.22;;;14.90;99.90;;;;;;5068427;28;20044;-74
2023/05/30 11:24:43;;;;;;;0.10;0.10;;;14.90;99.90;;;;;;5067941;28;20040;-74
2023/05/30 11:27:14;;;;;;;0.50;0.50;;;14.80;99.90;;;;;;5032063;28;20118;-73
2023/05/30 11:29:47;;;;;;;0.20;0.20;;;14.90;99.90;;;;;;5047762;28;20048;-73
2023/05/30 11:32:23;;;;;;;0.20;0.20;;;15.10;99.90;;;;;;5048236;28;20045;-74
2023/05/30 11:34:59;;;;;;;0.20;0.20;;;15.50;99.90;;;;;;5048896;28;20075;-74
2023/05/30 11:37:25;;;;;;;0.20;0.20;;;15.90;99.90;;;;;;5071728;28;20091;-74
2023/05/30 11:39:56;;;;;;;0.10;0.10;;;16.30;99.90;;;;;;5071709;28;20064;-74
2023/05/30 11:42:22;;;;;;;0.22;0.22;;;16.50;99.90;;;;;;5064732;28;20051;-74
2023/05/30 11:44:48;;;;;;;0.43;0.43;;;16.60;99.90;;;;;;5064136;28;20056;-74
2023/05/30 11:47:15;;;;;;;0.20;0.20;;;16.30;99.90;;;;;;5071735;28;20047;-74
2023/05/30 11:49:41;;;;;;;0.10;0.10;;;16.10;99.90;;;;;;5071131;28;20073;-74
2023/05/30 11:52:07;;;;;;;0.17;0.17;;;15.80;99.90;;;;;;5071447;28;20496;-75
2023/05/30 11:54:33;;;;;;;;;;;15.50;99.90;;;;;;5072864;28;20055;-74
2023/05/30 11:56:59;;;;;;;0.10;0.10;;;15.20;99.90;;;;;;5071649;28;19916;-75
2023/05/30 11:59:26;;;;;;;0.30;0.30;;;15.10;99.90;;;;;;5071615;28;20040;-74
2023/05/30 12:01:57;;;;;;;0.15;0.15;;;15.00;99.90;;;;;;5071225;28;20044;-74
2023/05/30 12:04:33;;;;;;;0.30;0.30;;;15.00;99.90;;;;;;5071319;28;20055;-74
2023/05/30 12:07:06;;;;;;;0.10;0.10;;;15.00;99.90;;;;;;5071582;28;20040;-74
2023/05/30 12:09:39;;;;;;;0.20;0.20;;;15.20;99.90;;;;;;5071557;28;20512;-74
2023/05/30 12:12:08;;;;;;;0.20;0.20;;;15.90;99.90;;;;;;5071342;28;20102;-74
2023/05/30 12:15:02;;;;;;;0.10;0.10;;;15.90;99.90;;;;;;5070916;28;20040;-74
2023/05/30 12:17:28;;;;;;;0.22;0.22;;;16.60;99.90;;;;;;5070554;28;20048;-74
2023/05/30 12:19:55;;;;;;;;;;;16.90;99.90;;;;;;5054661;28;20552;-74
2023/05/30 12:22:22;;;;;;;;;;;17.20;99.90;;;;;;5083833;28;20642;-74
2023/05/30 12:24:49;;;;;;;0.17;0.17;;;17.30;99.90;;;;;;5088898;28;19972;-75
2023/05/30 12:27:26;;;;;;;0.20;0.20;;;17.40;99.90;;;;;;5070762;28;20055;-75
2023/05/30 12:29:52;;;;;;;0.30;0.30;;;17.40;99.90;;;;;;5072138;28;20371;-75
2023/05/30 12:32:23;;;;;;;0.30;0.30;;;17.10;99.90;;;;;;5071142;28;20055;-74
2023/05/30 12:34:48;;;;;;;0.10;0.10;;;16.80;99.90;;;;;;5070412;28;20044;-74
2023/05/30 12:37:15;;;;;;;;;;;16.60;99.90;;;;;;5065779;28;20124;-75
2023/05/30 12:39:57;;;;;;;0.20;0.20;;;16.30;99.90;;;;;;5050493;28;19963;-75
2023/05/30 12:42:33;;;;;;;0.40;0.40;;;16.00;99.90;;;;;;5043509;28;20507;-74
2023/05/30 12:45:02;;;;;;;0.20;0.20;;;15.80;99.90;;;;;;5060211;28;20136;-74
2023/05/30 12:47:29;;;;;;;0.30;0.30;;;15.80;99.90;;;;;;5070594;28;20102;-74
2023/05/30 12:49:55;;;;;;;;;;;15.80;99.90;;;;;;5069087;28;20040;-74
2023/05/30 12:52:23;;;;;;;0.20;0.20;;;15.80;99.90;;;;;;5070546;28;19930;-74
2023/05/30 12:54:50;;;;;;;0.40;0.40;;;15.70;99.90;;;;;;5070266;28;20040;-74
2023/05/30 12:57:24;;;;;;;0.55;0.38;;;15.70;99.90;;;;;;5070486;28;20055;-74